createdAt,value
2023-05-12T00:00:18.994Z,99610.50
2023-05-12T00:02:46.945Z,99609.66
2023-05-12T00:05:14.048Z,99610.47
2023-05-12T00:07:40.967Z,99609.66
2023-05-12T00:10:08.381Z,99607.13
2023-05-12T00:12:35.623Z,99603.72
2023-05-12T00:15:02.997Z,99605.41
2023-05-12T00:17:31.774Z,99599.47
2023-05-12T00:19:58.741Z,99602.06
2023-05-12T00:22:27.121Z,99602.91
2023-05-12T00:24:54.101Z,99606.28
2023-05-12T00:27:21.056Z,99602.94
2023-05-12T00:29:47.984Z,99607.16
2023-05-12T00:32:15.799Z,99600.34
2023-05-12T00:34:43.304Z,99598.69
2023-05-12T00:37:10.683Z,99601.22
2023-05-12T00:39:38.073Z,99600.38
2023-05-12T00:42:05.631Z,99595.28
2023-05-12T00:44:32.893Z,99595.28
2023-05-12T00:47:00.324Z,99593.59
2023-05-12T00:49:27.743Z,99591.06
2023-05-12T00:51:58.860Z,99591.06
2023-05-12T00:54:27.228Z,99583.47
2023-05-12T00:56:54.726Z,99587.69
2023-05-12T00:59:23.051Z,99580.88
2023-05-12T01:01:50.749Z,99581.69
2023-05-12T01:04:18.162Z,99581.69
2023-05-12T01:06:56.453Z,99579.97
2023-05-12T01:09:23.944Z,99578.28
2023-05-12T01:11:51.708Z,99575.69
2023-05-12T01:14:19.540Z,99576.56
2023-05-12T01:16:52.805Z,99572.25
2023-05-12T01:19:49.354Z,99566.34
2023-05-12T01:22:18.120Z,99568.00
2023-05-12T01:24:54.300Z,99562.91
2023-05-12T01:27:23.544Z,99562.03
2023-05-12T01:29:52.594Z,99567.13
2023-05-12T01:32:21.549Z,99555.22
2023-05-12T01:34:49.611Z,99550.13
2023-05-12T01:37:16.998Z,99556.09
2023-05-12T01:39:44.720Z,99554.38
2023-05-12T01:42:17.270Z,99553.56
2023-05-12T01:44:44.375Z,99556.88
2023-05-12T01:47:11.628Z,99553.50
2023-05-12T01:49:40.324Z,99552.66
2023-05-12T01:52:11.290Z,99556.03
2023-05-12T01:54:38.389Z,99557.75
2023-05-12T01:57:05.835Z,99548.38
2023-05-12T01:59:35.028Z,99547.53
2023-05-12T02:02:04.035Z,99539.88
2023-05-12T02:04:32.063Z,99541.59
2023-05-12T02:07:00.666Z,99545.84
2023-05-12T02:09:27.698Z,99550.06
2023-05-12T02:11:59.016Z,99544.13
2023-05-12T02:14:25.953Z,99540.66
2023-05-12T02:16:53.144Z,99538.13
2023-05-12T02:19:22.566Z,99534.69
2023-05-12T02:21:49.669Z,99533.00
2023-05-12T02:24:16.829Z,99538.13
2023-05-12T02:26:44.597Z,99528.81
2023-05-12T02:29:13.037Z,99525.38
2023-05-12T02:31:40.064Z,99527.09
2023-05-12T02:34:16.375Z,99531.38
2023-05-12T02:36:43.584Z,99520.31
2023-05-12T02:39:11.999Z,99521.16
2023-05-12T02:41:39.435Z,99515.19
2023-05-12T02:44:06.684Z,99512.66
2023-05-12T02:46:33.787Z,99508.41
2023-05-12T02:49:00.925Z,99506.72
2023-05-12T02:51:28.004Z,99503.31
2023-05-12T02:53:55.209Z,99503.31
2023-05-12T02:56:22.693Z,99495.66
2023-05-12T02:58:50.589Z,99491.41
2023-05-12T03:01:17.613Z,99484.63
2023-05-12T03:03:44.813Z,99479.59
2023-05-12T03:06:12.088Z,99466.88
2023-05-12T03:08:39.278Z,99464.34
2023-05-12T03:11:06.356Z,99466.91
2023-05-12T03:13:33.710Z,99465.25
2023-05-12T03:16:01.544Z,99477.13
2023-05-12T03:18:29.198Z,99468.66
2023-05-12T03:20:56.398Z,99478.88
2023-05-12T03:23:24.902Z,99476.31
2023-05-12T03:25:51.886Z,99479.66
2023-05-12T03:28:18.880Z,99478.75
2023-05-12T03:30:45.800Z,99481.28
2023-05-12T03:33:12.791Z,99477.88
2023-05-12T03:35:39.965Z,99488.84
2023-05-12T03:38:06.965Z,99489.72
2023-05-12T03:40:34.041Z,99488.00
2023-05-12T03:43:00.963Z,99480.28
2023-05-12T03:45:28.033Z,99488.72
2023-05-12T03:47:55.017Z,99491.22
2023-05-12T03:50:22.148Z,99479.38
2023-05-12T03:52:49.231Z,99487.88
2023-05-12T03:55:16.232Z,99490.41
2023-05-12T03:57:43.186Z,99486.22
2023-05-12T04:00:11.540Z,99491.31
2023-05-12T04:02:44.520Z,99479.53
2023-05-12T04:05:14.072Z,99488.03
2023-05-12T04:07:42.000Z,99487.19
2023-05-12T04:10:09.229Z,99481.25
2023-05-12T04:12:36.236Z,99485.50
2023-05-12T04:15:04.037Z,99475.31
2023-05-12T04:17:31.419Z,99483.84
2023-05-12T04:19:58.388Z,99495.78
2023-05-12T04:22:25.836Z,99495.78
2023-05-12T04:24:53.250Z,99489.84
2023-05-12T04:27:20.224Z,99486.53
2023-05-12T04:29:47.188Z,99484.84
2023-05-12T04:32:14.190Z,99493.31
2023-05-12T04:34:41.556Z,99499.28
2023-05-12T04:37:08.970Z,99499.28
2023-05-12T04:39:36.908Z,99496.72
2023-05-12T04:42:04.555Z,99501.81
2023-05-12T04:44:33.725Z,99508.69
2023-05-12T04:47:00.821Z,99506.19
2023-05-12T04:49:27.840Z,99508.75
2023-05-12T04:51:54.761Z,99510.47
2023-05-12T04:54:22.003Z,99513.88
2023-05-12T04:56:49.200Z,99516.44
2023-05-12T04:59:16.359Z,99524.13
2023-05-12T05:01:44.825Z,99533.47
2023-05-12T05:04:12.145Z,99540.31
2023-05-12T05:06:39.275Z,99536.88
2023-05-12T05:09:06.481Z,99532.66
2023-05-12T05:11:33.524Z,99541.09
2023-05-12T05:14:00.633Z,99546.97
2023-05-12T05:16:28.986Z,99533.28
2023-05-12T05:18:58.294Z,99535.78
2023-05-12T05:21:25.517Z,99533.19
2023-05-12T05:23:53.072Z,99550.97
2023-05-12T05:26:21.562Z,99543.22
2023-05-12T05:28:48.840Z,99549.97
2023-05-12T05:31:17.119Z,99543.97
2023-05-12T05:33:44.654Z,99543.00
2023-05-12T05:36:11.797Z,99544.66
2023-05-12T05:38:39.067Z,99536.91
2023-05-12T05:41:06.762Z,99545.34
2023-05-12T05:43:34.080Z,99549.53
2023-05-12T05:46:01.704Z,99550.31
2023-05-12T05:48:28.786Z,99552.81
2023-05-12T05:50:56.549Z,99557.91
2023-05-12T05:53:24.985Z,99555.31
2023-05-12T05:55:53.048Z,99555.31
2023-05-12T05:58:20.016Z,99553.63
2023-05-12T06:00:47.601Z,99561.28
2023-05-12T06:03:14.853Z,99558.72
2023-05-12T06:05:43.742Z,99562.97
2023-05-12T06:08:13.425Z,99563.78
2023-05-12T06:10:41.129Z,99569.78
2023-05-12T06:13:08.154Z,99570.69
2023-05-12T06:15:35.723Z,99569.91
2023-05-12T06:18:02.773Z,99569.16
2023-05-12T06:20:32.228Z,99574.31
2023-05-12T06:22:59.785Z,99584.59
2023-05-12T06:25:26.888Z,99582.06
2023-05-12T06:27:53.854Z,99592.25
2023-05-12T06:30:20.971Z,99587.19
2023-05-12T06:32:47.972Z,99598.25
2023-05-12T06:35:15.122Z,99596.53
2023-05-12T06:37:44.733Z,99599.00
2023-05-12T06:40:14.753Z,99593.81
2023-05-12T06:42:41.716Z,99591.25
2023-05-12T06:45:12.475Z,99605.75
2023-05-12T06:47:40.232Z,99596.41
2023-05-12T06:50:10.425Z,99609.16
2023-05-12T06:52:37.588Z,99606.59
2023-05-12T06:55:05.656Z,99597.34
2023-05-12T06:57:32.748Z,99607.56
2023-05-12T07:00:00.567Z,99610.19
2023-05-12T07:02:27.835Z,99610.31
2023-05-12T07:04:55.058Z,99615.50
2023-05-12T07:07:22.245Z,99621.59
2023-05-12T07:09:49.277Z,99617.47
2023-05-12T07:12:16.236Z,99623.53
2023-05-12T07:14:43.195Z,99610.94
2023-05-12T07:17:10.155Z,99622.91
2023-05-12T07:19:39.496Z,99627.22
2023-05-12T07:22:06.665Z,99628.16
2023-05-12T07:24:33.970Z,99626.47
2023-05-12T07:27:01.032Z,99617.94
2023-05-12T07:29:27.959Z,99625.59
2023-05-12T07:31:55.265Z,99628.97
2023-05-12T07:34:22.288Z,99628.94
2023-05-12T07:36:49.191Z,99623.88
2023-05-12T07:39:19.338Z,99621.31
2023-05-12T07:41:46.323Z,99628.16
2023-05-12T07:44:13.292Z,99622.22
2023-05-12T07:46:40.320Z,99619.69
2023-05-12T07:49:07.369Z,99629.88
2023-05-12T07:51:34.465Z,99631.56
2023-05-12T07:54:01.532Z,99621.38
2023-05-12T07:56:28.509Z,99635.81
2023-05-12T07:58:55.943Z,99622.13
2023-05-12T08:01:23.993Z,99624.63
2023-05-12T08:03:51.657Z,99633.00
2023-05-12T08:06:18.962Z,99636.19
2023-05-12T08:08:46.157Z,99636.88
2023-05-12T08:11:13.685Z,99640.19
2023-05-12T08:13:40.666Z,99644.22
2023-05-12T08:16:07.592Z,99646.47
2023-05-12T08:18:34.565Z,99650.38
2023-05-12T08:21:01.556Z,99645.63
2023-05-12T08:23:28.510Z,99650.50
2023-05-12T08:25:55.680Z,99648.53
2023-05-12T08:28:22.646Z,99660.22
2023-05-12T08:30:49.638Z,99660.78
2023-05-12T08:33:16.835Z,99658.81
2023-05-12T08:35:43.769Z,99655.97
2023-05-12T08:38:11.887Z,99650.81
2023-05-12T08:41:18.816Z,99663.41
2023-05-12T08:43:51.357Z,99663.19
2023-05-12T08:46:18.735Z,99668.41
2023-05-12T08:48:48.856Z,99666.03
2023-05-12T08:51:18.001Z,99679.91
2023-05-12T08:53:49.893Z,99676.53
2023-05-12T08:58:50.196Z,99683.28
2023-05-12T09:01:18.280Z,99669.31
2023-05-12T09:03:45.824Z,99674.13
2023-05-12T09:06:14.429Z,99677.97
2023-05-12T09:08:41.914Z,99673.53
2023-05-12T09:11:12.825Z,99685.56
2023-05-12T09:13:49.606Z,99682.91
2023-05-12T09:16:23.827Z,99681.44
2023-05-12T09:18:59.136Z,99676.13
2023-05-12T09:21:27.844Z,99691.25
2023-05-12T09:24:06.519Z,99687.66
2023-05-12T09:26:53.542Z,99682.34
2023-05-12T09:29:31.251Z,99692.56
2023-05-12T09:32:03.720Z,99696.50
2023-05-12T09:34:35.597Z,99698.72
2023-05-12T09:37:06.457Z,99689.44
2023-05-12T09:39:33.957Z,99693.41
2023-05-12T09:42:01.362Z,99689.25
2023-05-12T09:44:31.797Z,99691.94
2023-05-12T09:47:07.450Z,99699.28
2023-05-12T09:49:34.429Z,99692.88
2023-05-12T09:52:04.134Z,99697.22
2023-05-12T09:54:33.583Z,99702.28
2023-05-12T09:57:04.815Z,99695.78
2023-05-12T09:59:35.974Z,99698.81
2023-05-12T10:02:06.964Z,99698.66
2023-05-12T10:04:45.530Z,99701.47
2023-05-12T10:07:14.372Z,99703.47
2023-05-12T10:09:44.183Z,99696.38
2023-05-12T10:12:11.450Z,99705.34
2023-05-12T10:14:38.910Z,99702.31
2023-05-12T10:17:07.258Z,99697.91
2023-05-12T10:19:35.847Z,99697.88
2023-05-12T10:22:05.645Z,99701.88
2023-05-12T10:24:33.544Z,99699.56
2023-05-12T10:27:03.175Z,99708.44
2023-05-12T10:29:32.769Z,99701.16
2023-05-12T10:32:03.826Z,99704.59
2023-05-12T10:34:35.262Z,99708.88
2023-05-12T10:37:09.995Z,99704.84
2023-05-12T10:39:46.304Z,99710.22
2023-05-12T10:42:24.977Z,99707.66
2023-05-12T10:44:56.784Z,99708.94
2023-05-12T10:47:26.853Z,99710.22
2023-05-12T10:50:00.677Z,99711.03
2023-05-12T10:52:27.751Z,99707.25
2023-05-12T10:55:02.318Z,99704.22
2023-05-12T10:57:32.009Z,99695.06
2023-05-12T11:00:04.090Z,99706.06
2023-05-12T11:02:36.328Z,99704.44
2023-05-12T11:05:12.452Z,99706.69
2023-05-12T11:07:40.533Z,99698.69
2023-05-12T11:10:11.178Z,99703.16
2023-05-12T11:12:38.273Z,99711.59
2023-05-12T11:15:07.037Z,99706.94
2023-05-12T11:17:38.970Z,99715.09
2023-05-12T11:20:07.157Z,99714.16
2023-05-12T11:22:34.176Z,99716.28
2023-05-12T11:25:11.175Z,99718.63
2023-05-12T11:27:44.680Z,99727.03
2023-05-12T11:30:11.882Z,99735.78
2023-05-12T11:32:39.101Z,99727.38
2023-05-12T11:35:17.997Z,99732.94
2023-05-12T11:37:46.402Z,99730.94
2023-05-12T11:40:19.478Z,99737.81
2023-05-12T11:42:51.512Z,99736.22
2023-05-12T11:45:28.673Z,99732.91
2023-05-12T11:48:12.342Z,99729.38
2023-05-12T11:50:47.542Z,99728.13
2023-05-12T11:53:18.861Z,99741.34
2023-05-12T11:55:54.801Z,99732.34
2023-05-12T11:58:27.129Z,99730.03
2023-05-12T12:00:54.857Z,99731.44
2023-05-12T12:03:22.142Z,99732.31
2023-05-12T12:06:03.824Z,99740.47
2023-05-12T12:08:31.729Z,99744.22
2023-05-12T12:10:59.597Z,99744.19
2023-05-12T12:13:27.496Z,99753.50
2023-05-12T12:15:54.555Z,99753.47
2023-05-12T12:18:21.632Z,99761.19
2023-05-12T12:20:48.880Z,99760.13
2023-05-12T12:23:15.864Z,99769.06
2023-05-12T12:25:43.536Z,99764.38
2023-05-12T12:28:10.560Z,99771.31
2023-05-12T12:30:37.596Z,99761.88
2023-05-12T12:33:04.635Z,99761.56
2023-05-12T12:35:31.760Z,99774.03
2023-05-12T12:37:59.220Z,99768.50
2023-05-12T12:40:26.208Z,99783.22
2023-05-12T12:42:53.382Z,99772.22
2023-05-12T12:45:20.699Z,99770.03
2023-05-12T12:47:47.853Z,99772.25
2023-05-12T12:50:15.022Z,99783.00
2023-05-12T12:52:42.067Z,99775.84
2023-05-12T12:55:09.986Z,99779.59
2023-05-12T12:57:37.084Z,99773.22
2023-05-12T13:00:05.663Z,99780.59
2023-05-12T13:02:34.494Z,99775.09
2023-05-12T13:05:06.877Z,99776.44
2023-05-12T13:07:34.430Z,99777.88
2023-05-12T13:10:01.514Z,99783.81
2023-05-12T13:12:30.493Z,99774.31
2023-05-12T13:14:57.691Z,99775.16
2023-05-12T13:17:24.727Z,99773.34
2023-05-12T13:19:52.648Z,99769.69
2023-05-12T13:22:19.701Z,99776.31
2023-05-12T13:24:47.489Z,99776.25
2023-05-12T13:27:14.451Z,99772.75
2023-05-12T13:29:42.305Z,99771.09
2023-05-12T13:32:09.375Z,99769.13
2023-05-12T13:34:36.346Z,99768.69
2023-05-12T13:37:03.469Z,99768.97
2023-05-12T13:39:30.435Z,99762.66
2023-05-12T13:41:57.412Z,99763.09
2023-05-12T13:44:24.371Z,99765.28
2023-05-12T13:46:51.404Z,99764.81
2023-05-12T13:49:19.748Z,99767.84
2023-05-12T13:51:46.771Z,99761.59
2023-05-12T13:54:13.769Z,99760.69
2023-05-12T13:56:40.800Z,99763.28
2023-05-12T13:59:09.385Z,99772.06
2023-05-12T14:01:36.507Z,99766.47
2023-05-12T14:04:03.801Z,99769.16
2023-05-12T14:06:32.111Z,99770.16
2023-05-12T14:08:59.359Z,99763.28
2023-05-12T14:11:26.705Z,99761.88
2023-05-12T14:13:53.875Z,99771.31
2023-05-12T14:16:21.131Z,99761.19
2023-05-12T14:18:48.371Z,99765.44
2023-05-12T14:21:15.473Z,99766.44
2023-05-12T14:23:42.563Z,99761.44
2023-05-12T14:26:09.496Z,99769.94
2023-05-12T14:28:38.517Z,99769.94
2023-05-12T14:31:05.842Z,99765.53
2023-05-12T14:33:32.832Z,99779.44
2023-05-12T14:36:07.125Z,99776.25
2023-05-12T14:38:35.901Z,99770.66
2023-05-12T14:41:03.046Z,99777.81
2023-05-12T14:43:30.020Z,99780.81
2023-05-12T14:45:57.654Z,99780.34
2023-05-12T14:48:28.392Z,99784.28
2023-05-12T14:50:56.834Z,99783.94
2023-05-12T14:53:24.367Z,99775.81
2023-05-12T14:55:52.062Z,99779.59
2023-05-12T14:58:21.398Z,99781.72
2023-05-12T15:00:50.946Z,99789.00
2023-05-12T15:03:18.533Z,99794.44
2023-05-12T15:06:04.925Z,99791.19
2023-05-12T15:08:33.732Z,99800.81
2023-05-12T15:11:00.812Z,99796.56
2023-05-12T15:13:27.780Z,99801.78
2023-05-12T15:15:56.582Z,99799.22
2023-05-12T15:18:24.298Z,99799.22
2023-05-12T15:20:51.659Z,99801.66
2023-05-12T15:23:18.681Z,99806.69
2023-05-12T15:25:45.677Z,99803.97
2023-05-12T15:28:12.798Z,99797.09
2023-05-12T15:30:39.787Z,99798.03
2023-05-12T15:33:06.953Z,99802.34
2023-05-12T15:35:34.351Z,99796.16
2023-05-12T15:38:01.855Z,99798.69
2023-05-12T15:40:30.889Z,99798.47
2023-05-12T15:42:58.306Z,99795.94
2023-05-12T15:45:25.451Z,99798.28
2023-05-12T15:47:52.546Z,99803.63
2023-05-12T15:50:22.830Z,99789.19
2023-05-12T15:52:50.365Z,99797.91
2023-05-12T15:55:17.601Z,99792.75
2023-05-12T15:57:44.838Z,99800.50
2023-05-12T16:00:12.961Z,99789.44
2023-05-12T16:02:40.956Z,99790.41
2023-05-12T16:05:38.785Z,99796.72
2023-05-12T16:08:05.903Z,99798.50
2023-05-12T16:10:32.878Z,99800.13
2023-05-12T16:12:59.867Z,99801.78
2023-05-12T16:15:27.290Z,99799.22
2023-05-12T16:17:54.364Z,99800.00
2023-05-12T16:20:21.813Z,99798.59
2023-05-12T16:22:49.025Z,99803.13
2023-05-12T16:25:15.953Z,99805.06
2023-05-12T16:27:42.954Z,99807.88
2023-05-12T16:30:10.811Z,99807.19
2023-05-12T16:32:37.917Z,99808.22
2023-05-12T16:35:06.119Z,99804.19
2023-05-12T16:37:33.155Z,99803.66
2023-05-12T16:40:00.301Z,99810.75
2023-05-12T16:42:27.441Z,99808.44
2023-05-12T16:44:57.835Z,99806.91
2023-05-12T16:47:24.825Z,99809.66
2023-05-12T16:49:54.995Z,99802.78
2023-05-12T16:52:21.993Z,99806.13
2023-05-12T16:54:48.948Z,99803.47
2023-05-12T16:57:15.941Z,99809.59
2023-05-12T16:59:42.903Z,99814.91
2023-05-12T17:02:10.784Z,99815.72
2023-05-12T17:04:37.789Z,99818.38
2023-05-12T17:07:05.028Z,99820.06
2023-05-12T17:09:31.960Z,99819.97
2023-05-12T17:11:59.133Z,99825.06
2023-05-12T17:14:26.184Z,99812.13
2023-05-12T17:16:53.306Z,99826.66
2023-05-12T17:19:22.035Z,99824.06
2023-05-12T17:21:49.253Z,99824.06
2023-05-12T17:24:16.252Z,99829.13
2023-05-12T17:26:43.205Z,99830.94
2023-05-12T17:29:10.415Z,99833.59
2023-05-12T17:31:38.512Z,99836.22
2023-05-12T17:34:06.067Z,99836.31
2023-05-12T17:36:33.144Z,99828.22
2023-05-12T17:39:00.419Z,99829.44
2023-05-12T17:41:29.072Z,99836.72
2023-05-12T17:43:57.001Z,99842.09
2023-05-12T17:46:23.994Z,99838.75
2023-05-12T17:48:51.265Z,99841.38
2023-05-12T17:51:18.242Z,99845.84
2023-05-12T17:53:46.176Z,99852.78
2023-05-12T17:56:13.100Z,99852.13
2023-05-12T17:58:40.054Z,99856.66
2023-05-12T18:01:07.065Z,99857.88
2023-05-12T18:03:35.372Z,99850.47
2023-05-12T18:06:02.799Z,99847.50
2023-05-12T18:08:29.771Z,99864.25
2023-05-12T18:10:56.827Z,99864.00
2023-05-12T18:13:23.957Z,99875.63
2023-05-12T18:15:50.974Z,99875.25
2023-05-12T18:18:18.032Z,99886.00
2023-05-12T18:20:44.964Z,99891.56
2023-05-12T18:23:11.935Z,99889.47
2023-05-12T18:25:39.001Z,99907.78
2023-05-12T18:28:06.669Z,99912.47
2023-05-12T18:30:33.841Z,99928.38
2023-05-12T18:33:00.944Z,99912.66
2023-05-12T18:35:28.204Z,99907.41
2023-05-12T18:37:55.181Z,99902.28
2023-05-12T18:40:22.205Z,99889.34
2023-05-12T18:42:49.213Z,99873.88
2023-05-12T18:45:18.456Z,99861.63
2023-05-12T18:47:46.114Z,99862.97
2023-05-12T18:50:13.332Z,99870.16
2023-05-12T18:52:40.452Z,99873.03
2023-05-12T18:55:08.296Z,99884.34
2023-05-12T18:57:35.362Z,99876.03
2023-05-12T19:00:02.412Z,99886.56
2023-05-12T19:02:32.109Z,99896.22
2023-05-12T19:04:59.085Z,99908.41
2023-05-12T19:07:26.033Z,99912.84
2023-05-12T19:09:52.977Z,99909.63
2023-05-12T19:12:19.888Z,99918.34
2023-05-12T19:14:46.877Z,99920.13
2023-05-12T19:17:14.026Z,99919.38
2023-05-12T19:19:40.969Z,99920.34
2023-05-12T19:22:07.932Z,99922.13
2023-05-12T19:24:35.613Z,99927.25
2023-05-12T19:27:02.563Z,99930.78
2023-05-12T19:29:29.591Z,99943.59
2023-05-12T19:31:56.745Z,99947.03
2023-05-12T19:34:23.858Z,99959.91
2023-05-12T19:36:52.933Z,99960.00
2023-05-12T19:39:19.994Z,99957.50
2023-05-12T19:41:47.095Z,99960.91
2023-05-12T19:44:14.104Z,99973.84
2023-05-12T19:46:41.142Z,99971.25
2023-05-12T19:49:08.122Z,99968.78
2023-05-12T19:51:35.097Z,99973.97
2023-05-12T19:54:04.709Z,99980.78
2023-05-12T19:56:32.214Z,99987.66
2023-05-12T19:58:59.374Z,99988.50
2023-05-12T20:01:26.705Z,99992.84
2023-05-12T20:03:54.079Z,99990.38
2023-05-12T20:06:22.330Z,99999.00
2023-05-12T20:08:49.336Z,99994.88
2023-05-12T20:11:16.574Z,99993.22
2023-05-12T20:13:43.517Z,99997.56
2023-05-12T20:16:10.676Z,100002.81
2023-05-12T20:18:37.834Z,100001.16
2023-05-12T20:21:04.792Z,100006.34
2023-05-12T20:23:32.054Z,100005.59
2023-05-12T20:25:59.723Z,100015.03
2023-05-12T20:28:26.857Z,100016.81
2023-05-12T20:30:53.999Z,100021.16
2023-05-12T20:33:21.126Z,100014.41
2023-05-12T20:35:48.401Z,100012.75
2023-05-12T20:38:15.652Z,100023.88
2023-05-12T20:40:42.659Z,100021.31
2023-05-12T20:43:09.586Z,100015.38
2023-05-12T20:45:37.420Z,100019.69
2023-05-12T20:48:04.784Z,100017.13
2023-05-12T20:50:31.850Z,100018.81
2023-05-12T20:52:59.262Z,100017.13
2023-05-12T20:55:26.419Z,100012.00
2023-05-12T20:57:54.162Z,100009.44
2023-05-12T21:00:21.527Z,100012.00
2023-05-12T21:02:52.068Z,100018.81
2023-05-12T21:05:20.531Z,100022.25
2023-05-12T21:07:47.754Z,100019.69
2023-05-12T21:10:14.739Z,100020.59
2023-05-12T21:12:41.827Z,100016.34
2023-05-12T21:15:11.700Z,100018.03
2023-05-12T21:17:39.691Z,100020.66
2023-05-12T21:20:12.348Z,100014.75
2023-05-12T21:22:40.912Z,100013.94
2023-05-12T21:25:08.752Z,100012.28
2023-05-12T21:27:41.430Z,100010.59
2023-05-12T21:30:10.541Z,100016.59
2023-05-12T21:32:37.888Z,100009.84
2023-05-12T21:35:06.470Z,100018.34
2023-05-12T21:37:34.243Z,100014.97
2023-05-12T21:40:01.395Z,100018.41
2023-05-12T21:42:28.454Z,100020.94
2023-05-12T21:44:55.615Z,100026.97
2023-05-12T21:47:22.895Z,100026.97
2023-05-12T21:49:56.793Z,100026.13
2023-05-12T21:52:23.847Z,100031.31
2023-05-12T21:54:50.874Z,100033.91
2023-05-12T21:57:18.040Z,100037.38
2023-05-12T21:59:45.120Z,100033.94
2023-05-12T22:02:13.179Z,100040.84
2023-05-12T22:04:40.334Z,100043.44
2023-05-12T22:07:07.753Z,100035.81
2023-05-12T22:09:34.737Z,100039.25
2023-05-12T22:12:01.798Z,100045.22
2023-05-12T22:14:28.905Z,100039.41
2023-05-12T22:16:56.227Z,100046.25
2023-05-12T22:19:23.307Z,100042.91
2023-05-12T22:21:50.730Z,100041.25
2023-05-12T22:24:17.706Z,100044.75
2023-05-12T22:26:44.664Z,100039.72
2023-05-12T22:29:11.668Z,100042.28
2023-05-12T22:31:38.713Z,100039.81
2023-05-12T22:34:05.723Z,100046.69
2023-05-12T22:36:32.673Z,100045.91
2023-05-12T22:38:59.852Z,100052.81
2023-05-12T22:41:26.884Z,100045.25
2023-05-12T22:43:53.813Z,100044.44
2023-05-12T22:46:20.869Z,100043.63
2023-05-12T22:48:47.912Z,100045.38
2023-05-12T22:51:14.859Z,100042.88
2023-05-12T22:53:41.873Z,100042.09
2023-05-12T22:56:08.866Z,100046.38
2023-05-12T22:58:35.895Z,100047.25
2023-05-12T23:01:03.093Z,100046.50
2023-05-12T23:03:30.210Z,100039.75
2023-05-12T23:05:57.183Z,100047.50
2023-05-12T23:08:24.210Z,100048.34
2023-05-12T23:10:51.140Z,100053.53
2023-05-12T23:13:18.042Z,100049.34
2023-05-12T23:15:44.974Z,100051.91
2023-05-12T23:18:11.937Z,100041.84
2023-05-12T23:20:39.074Z,100042.75
2023-05-12T23:23:06.967Z,100048.81
2023-05-12T23:25:35.123Z,100038.66
2023-05-12T23:28:02.013Z,100042.19
2023-05-12T23:30:31.895Z,100041.47
2023-05-12T23:32:59.037Z,100041.53
2023-05-12T23:35:30.336Z,100045.00
2023-05-12T23:37:57.466Z,100041.63
2023-05-12T23:40:24.388Z,100041.72
2023-05-12T23:42:51.594Z,100046.09
2023-05-12T23:45:19.281Z,100046.13
2023-05-12T23:47:46.366Z,100038.50
2023-05-12T23:50:13.331Z,100047.03
2023-05-12T23:52:40.544Z,100044.56
2023-05-12T23:55:08.205Z,100043.72
2023-05-12T23:57:35.199Z,100042.06
